Hlavní strana
METAR-TAF:

METAR-TAF

Letiště :

Meadow Lake, Saskatchewan, Kanada

zeměpisná šířka: 54-08N, zeměpisná délka: 108-31W, výška: 480 m

Aktuální stav počasí

Zpráva byla vytvořena před 10 hodinami a 20 minutami, v 00:00 UTC
Západní vítr 6 kt
Teplota -11°C
Vlhkost vzduchu 72%
Tlak 1016 hPa
Viditelnost: 24.1 km
Skoro jasno ve výšce 2000 ft
Skoro jasno ve výšce 6000 ft

METAR: CYLJ 220000Z 28006KT 15SM FEW020 FEW060 M11/M15 A3000 RMK SC1SC1 LAST STFD OB/NXT221200UTC SLP199

Čas: 04:20 (10:20 UTC)


TAF: chybějící

Stav a předpovědi počasí z více než 4 000 letišť (zprávy METAR a TAF).

Červené a žluté tečky na mapě představují dostupné meteorologické stanice.

Když kurzor umístíte na tečku, zobrazí se název stanice.

Pak kliknutím zobrazíte stav a předpověď počasí.

Chcete-li změnit mapu, kliknutím na zelené tlačítko se znaménkem +mapu přiblížíte, kliknutím na zelené tlačítko se znaménkem – mapu oddálíte a kliknutím na zelené šipky přejdete na sousední mapy.


METAR-TAF: